Time;durP1;ratioP1;P1;durP2;ratioP2;P2;SDS_P1;SDS_P2;PMS_P1;PMS_P2;Temp;Humidity;BMP_temperature;BMP_pressure;BME280_temperature;BME280_humidity;BME280_pressure;Samples;Min_cycle;Max_cycle;Signal;HPM_P1;HPM_P2
2021/07/15 00:00:14;;;;;;;;;7.00;6.25;;;;;25.42;58.92;98325.88;6043308;28;98057;-64
2021/07/15 00:03:20;;;;;;;;;5.00;5.00;;;;;25.22;59.37;98347.84;6069113;28;96651;-64
2021/07/15 00:06:24;;;;;;;;;8.00;7.00;;;;;25.30;59.87;98336.00;6064767;28;96608;-64
2021/07/15 00:09:28;;;;;;;;;6.50;6.50;;;;;25.35;60.05;98325.59;6082586;28;97661;-65
2021/07/15 00:12:31;;;;;;;;;7.00;6.75;;;;;25.44;59.98;98322.78;6075882;28;96540;-65
2021/07/15 00:15:37;;;;;;;;;6.00;6.00;;;;;25.52;59.74;98341.25;6086676;28;97380;-65
2021/07/15 00:18:44;;;;;;;;;7.00;6.00;;;;;25.56;60.27;98349.72;6064893;28;98316;-65
2021/07/15 00:21:48;;;;;;;;;7.00;5.60;;;;;25.58;59.45;98369.50;6056266;28;100909;-65
2021/07/15 00:24:59;;;;;;;;;6.60;5.00;;;;;25.55;58.82;98364.66;6078760;28;97583;-65
2021/07/15 00:28:03;;;;;;;;;6.60;6.00;;;;;25.58;59.22;98384.09;6083264;28;98024;-64
2021/07/15 00:31:07;;;;;;;;;8.25;6.25;;;;;25.53;58.75;98431.19;6040957;28;96697;-65
2021/07/15 00:34:19;;;;;;;;;7.00;6.00;;;;;25.43;58.74;98448.91;6083047;28;96497;-66
2021/07/15 00:37:26;;;;;;;;;8.00;8.00;;;;;25.48;59.39;98461.72;6034440;28;97178;-64
2021/07/15 00:40:29;;;;;;;;;8.00;6.00;;;;;25.39;59.05;98485.78;6081062;28;97425;-64
2021/07/15 00:43:33;;;;;;;;;6.67;5.67;;;;;25.39;58.66;98497.63;6068406;28;97587;-65
2021/07/15 00:46:37;;;;;;;;;7.00;6.00;;;;;25.36;58.74;98520.34;6073038;28;96686;-64
2021/07/15 00:49:40;;;;;;;;;6.00;6.00;;;;;25.41;58.90;98500.84;6074240;28;97548;-67
2021/07/15 00:52:45;;;;;;;;;8.50;7.50;;;;;25.40;59.02;98520.53;6078380;28;97442;-64
2021/07/15 00:55:49;;;;;;;;;8.25;6.50;;;;;25.40;58.94;98531.56;6081760;28;98030;-67
2021/07/15 00:58:52;;;;;;;;;6.00;6.00;;;;;25.43;59.13;98517.91;6052315;28;97359;-66
2021/07/15 01:01:55;;;;;;;;;6.00;5.20;;;;;25.49;59.52;98502.00;6078089;28;97426;-65
2021/07/15 01:05:06;;;;;;;;;6.40;6.00;;;;;25.51;59.45;98494.19;6077419;28;96665;-65
2021/07/15 01:08:14;;;;;;;;;6.50;6.00;;;;;25.57;59.80;98429.41;6085982;28;96649;-67
2021/07/15 01:11:28;;;;;;;;;6.60;5.40;;;;;25.60;58.96;98397.59;6085530;28;96586;-64
2021/07/15 01:14:56;;;;;;;;;6.00;6.00;;;;;25.60;59.27;98387.38;6079993;28;96896;-66
2021/07/15 01:18:14;;;;;;;;;5.00;5.00;;;;;25.65;59.24;98383.59;6058196;28;96990;-64
2021/07/15 01:21:51;;;;;;;;;7.00;6.00;;;;;25.67;58.86;98389.59;6036832;28;99538;-66
2021/07/15 01:25:32;;;;;;;;;5.50;5.00;;;;;25.70;58.29;98402.75;6062232;28;96816;-66
2021/07/15 01:28:56;;;;;;;;;7.00;6.00;;;;;25.74;58.32;98420.25;6043316;28;96701;-65
2021/07/15 01:32:05;;;;;;;;;4.00;4.00;;;;;25.74;58.74;98398.97;6057502;28;98741;-64
2021/07/15 01:35:11;;;;;;;;;4.75;4.75;;;;;25.56;57.88;98380.88;6064493;28;99754;-64
2021/07/15 01:38:17;;;;;;;;;6.00;5.00;;;;;25.66;58.43;98394.28;6077515;28;97494;-66
2021/07/15 01:41:24;;;;;;;;;4.20;4.20;;;;;25.63;57.71;98413.47;6052688;28;98668;-66
2021/07/15 01:44:31;;;;;;;;;5.00;5.00;;;;;25.66;58.14;98416.38;6085665;28;97060;-66
2021/07/15 01:47:36;;;;;;;;;7.00;6.00;;;;;25.59;57.95;98443.72;6070264;28;97211;-67
2021/07/15 01:50:40;;;;;;;;;5.00;5.00;;;;;25.54;58.41;98443.03;6065474;28;97613;-65
2021/07/15 01:53:44;;;;;;;;;5.00;5.00;;;;;25.55;58.52;98428.13;6054897;28;96869;-66
2021/07/15 01:56:49;;;;;;;;;5.75;5.00;;;;;25.55;58.66;98414.34;6081321;28;96661;-65
2021/07/15 01:59:54;;;;;;;;;6.00;6.00;;;;;25.57;59.09;98404.56;6084356;28;97447;-65
2021/07/15 02:03:00;;;;;;;;;7.00;6.60;;;;;25.60;58.58;98392.88;6052229;28;97550;-64
2021/07/15 02:06:06;;;;;;;;;6.60;6.00;;;;;25.63;58.67;98388.63;6051321;28;98468;-64
2021/07/15 02:09:11;;;;;;;;;9.00;8.00;;;;;25.64;58.71;98387.50;6037835;28;97150;-66
2021/07/15 02:12:15;;;;;;;;;9.00;8.00;;;;;25.63;57.78;98383.13;6063122;28;97527;-67
2021/07/15 02:15:19;;;;;;;;;9.00;8.00;;;;;25.69;58.23;98377.09;6064546;28;96553;-65
2021/07/15 02:18:25;;;;;;;;;12.00;10.00;;;;;25.70;58.13;98356.63;6076795;28;97450;-66
2021/07/15 02:21:31;;;;;;;;;14.00;11.00;;;;;25.70;57.93;98348.34;6037099;28;97516;-65
2021/07/15 02:24:35;;;;;;;;;11.20;9.00;;;;;25.51;58.71;98323.06;6041943;28;96780;-67
2021/07/15 02:27:42;;;;;;;;;10.00;9.00;;;;;25.68;58.39;98369.94;6067072;28;97352;-66
2021/07/15 02:30:47;;;;;;;;;10.20;9.00;;;;;25.63;58.35;98369.31;6049473;28;97447;-65
2021/07/15 02:33:58;;;;;;;;;11.40;10.00;;;;;25.54;58.32;98357.47;6072440;28;97507;-67
2021/07/15 02:37:02;;;;;;;;;10.00;9.00;;;;;25.51;58.25;98380.22;6081217;28;97060;-66
2021/07/15 02:40:08;;;;;;;;;11.20;9.80;;;;;25.41;58.55;98401.50;6083417;28;97468;-65
2021/07/15 02:43:11;;;;;;;;;10.25;9.25;;;;;25.24;59.00;98422.84;6080664;28;96487;-67
2021/07/15 02:46:15;;;;;;;;;7.00;7.00;;;;;25.07;59.55;98450.47;6076187;28;96585;-65
2021/07/15 02:49:20;;;;;;;;;9.00;9.00;;;;;24.96;60.29;98444.50;6079073;28;97501;-66
2021/07/15 02:52:23;;;;;;;;;8.00;8.00;;;;;24.76;60.76;98450.63;6082760;28;97426;-66
2021/07/15 02:55:27;;;;;;;;;11.00;9.00;;;;;24.66;60.93;98450.94;6057057;28;96923;-65
2021/07/15 02:58:36;;;;;;;;;7.00;6.00;;;;;24.54;61.30;98473.63;6083366;28;96579;-65
2021/07/15 03:01:47;;;;;;;;;8.20;7.80;;;;;24.41;62.01;98510.41;6083915;28;96451;-65
2021/07/15 03:05:06;;;;;;;;;10.00;8.50;;;;;24.42;62.21;98470.72;6041223;28;96436;-66
2021/07/15 03:08:12;;;;;;;;;8.50;8.50;;;;;24.62;62.32;98419.66;6050257;28;97587;-65
2021/07/15 03:11:16;;;;;;;;;10.40;8.00;;;;;24.78;61.79;98388.50;6078447;28;98615;-67
2021/07/15 03:14:21;;;;;;;;;7.40;7.00;;;;;24.93;61.99;98388.03;6064408;28;98568;-64
2021/07/15 03:17:27;;;;;;;;;8.50;8.00;;;;;24.99;60.96;98425.34;6068242;28;96661;-64
2021/07/15 03:20:35;;;;;;;;;8.60;8.60;;;;;25.02;60.91;98399.84;6071320;28;98498;-65
2021/07/15 03:23:41;;;;;;;;;11.00;7.00;;;;;25.07;61.08;98418.16;6058551;28;97112;-65
2021/07/15 03:26:47;;;;;;;;;8.20;7.20;;;;;25.15;60.84;98413.78;6075802;28;97032;-65
2021/07/15 03:29:51;;;;;;;;;9.25;8.00;;;;;25.20;60.70;98408.91;6050806;28;97509;-64
2021/07/15 03:32:56;;;;;;;;;9.00;8.00;;;;;25.20;60.49;98400.63;6063624;28;96983;-66
2021/07/15 03:36:03;;;;;;;;;10.00;10.00;;;;;25.09;60.86;98382.00;6082965;28;96636;-64
2021/07/15 03:39:07;;;;;;;;;7.60;7.40;;;;;25.07;60.92;98370.50;6079515;28;96877;-66
2021/07/15 03:42:10;;;;;;;;;9.40;8.00;;;;;25.09;61.10;98326.81;6053688;28;97815;-66
2021/07/15 03:45:16;;;;;;;;;7.25;6.25;;;;;25.20;60.71;98323.38;6060684;28;97668;-64
2021/07/15 03:48:24;;;;;;;;;9.00;8.00;;;;;25.23;60.81;98303.41;6083194;28;97511;-65
2021/07/15 03:51:29;;;;;;;;;8.00;7.25;;;;;25.13;60.71;98341.56;6069106;28;96692;-65
2021/07/15 03:54:32;;;;;;;;;7.00;6.00;;;;;25.02;60.72;98332.88;6082581;28;96467;-66
2021/07/15 03:57:36;;;;;;;;;8.00;8.00;;;;;25.00;61.10;98321.34;6071481;28;97548;-65
2021/07/15 04:00:42;;;;;;;;;8.00;7.00;;;;;24.93;61.41;98343.91;6062332;28;97087;-66
2021/07/15 04:03:48;;;;;;;;;8.80;8.00;;;;;24.83;61.86;98360.75;6080910;28;96667;-66
2021/07/15 04:06:53;;;;;;;;;9.25;8.75;;;;;24.63;61.75;98342.16;6059968;28;97550;-64
2021/07/15 04:09:58;;;;;;;;;11.00;9.00;;;;;24.69;62.11;98354.63;6035797;28;97595;-64
2021/07/15 04:13:02;;;;;;;;;8.00;8.00;;;;;24.58;62.62;98361.63;6078099;28;98528;-65
2021/07/15 04:16:22;;;;;;;;;8.40;8.00;;;;;24.53;62.60;98348.81;6082261;28;97706;-64
2021/07/15 04:19:31;;;;;;;;;10.00;8.00;;;;;24.48;63.14;98353.69;6064492;28;98097;-65
2021/07/15 04:22:38;;;;;;;;;10.00;9.00;;;;;24.46;63.79;98367.78;6053662;28;99482;-65
2021/07/15 04:25:43;;;;;;;;;12.00;10.00;;;;;24.30;64.18;98361.16;6070785;28;96496;-66
2021/07/15 04:28:47;;;;;;;;;11.40;11.00;;;;;24.21;64.44;98385.13;6081283;28;97261;-65
2021/07/15 04:31:59;;;;;;;;;12.00;10.75;;;;;23.98;65.56;98424.91;6081545;28;97367;-64
2021/07/15 04:35:07;;;;;;;;;14.20;12.20;;;;;23.91;66.45;98427.31;6060146;28;96469;-66
2021/07/15 04:38:12;;;;;;;;;15.00;14.00;;;;;24.14;65.98;98326.94;6074810;28;97192;-65
2021/07/15 04:41:15;;;;;;;;;13.40;13.40;;;;;24.33;66.15;98340.41;6079555;28;96468;-66
2021/07/15 04:44:20;;;;;;;;;14.20;12.20;;;;;24.54;65.13;98369.72;6069175;28;97413;-66
2021/07/15 04:47:24;;;;;;;;;14.00;14.00;;;;;24.60;64.83;98356.59;6083831;28;96525;-67
2021/07/15 04:50:30;;;;;;;;;15.00;14.00;;;;;24.82;64.25;98358.34;6076827;28;97466;-65
2021/07/15 04:53:35;;;;;;;;;15.50;14.00;;;;;25.02;64.37;98364.00;6050970;28;97877;-65
2021/07/15 04:56:40;;;;;;;;;16.00;14.00;;;;;25.10;64.00;98364.31;6067396;28;98014;-66
2021/07/15 04:59:44;;;;;;;;;17.75;15.00;;;;;25.15;63.76;98373.22;6085221;28;96441;-66
2021/07/15 05:02:51;;;;;;;;;17.00;16.00;;;;;25.27;63.73;98389.06;6078816;28;96491;-66
2021/07/15 05:05:57;;;;;;;;;19.00;17.00;;;;;25.41;63.18;98365.63;6054577;28;98800;-66
2021/07/15 05:09:02;;;;;;;;;20.00;17.00;;;;;25.52;62.69;98387.34;6083316;28;98076;-67
2021/07/15 05:12:06;;;;;;;;;18.50;17.50;;;;;25.63;62.41;98449.38;6055651;28;99638;-66
2021/07/15 05:15:11;;;;;;;;;19.00;17.80;;;;;25.53;63.04;98530.56;6093761;28;97119;-65
2021/07/15 05:18:15;;;;;;;;;12.00;11.00;;;;;25.27;62.86;98525.06;6077722;28;97034;-66
2021/07/15 05:21:18;;;;;;;;;12.60;10.00;;;;;25.34;61.66;98478.50;6085883;28;96593;-66
2021/07/15 05:24:22;;;;;;;;;11.50;10.00;;;;;25.46;61.41;98473.09;6074677;28;96664;-66
2021/07/15 05:27:26;;;;;;;;;11.00;10.00;;;;;25.45;61.01;98492.75;6079476;28;97047;-66
2021/07/15 05:30:29;;;;;;;;;10.00;9.00;;;;;25.56;60.78;98477.47;6085341;28;97568;-66
2021/07/15 05:33:32;;;;;;;;;9.00;9.00;;;;;25.71;60.80;98470.59;6037566;28;96912;-65
2021/07/15 05:36:38;;;;;;;;;9.00;8.40;;;;;25.75;60.39;98472.41;6077093;28;96530;-66
2021/07/15 05:39:44;;;;;;;;;10.00;9.00;;;;;25.90;60.12;98472.97;6076852;28;97360;-66
2021/07/15 05:42:47;;;;;;;;;10.00;9.00;;;;;26.03;60.71;98469.16;6058890;28;96686;-66
2021/07/15 05:45:50;;;;;;;;;9.00;8.00;;;;;26.08;60.44;98467.03;6067509;28;96797;-66
2021/07/15 05:48:54;;;;;;;;;10.00;9.60;;;;;26.16;60.02;98452.34;6053928;28;97293;-66
2021/07/15 05:51:57;;;;;;;;;8.25;8.25;;;;;26.23;59.46;98435.28;6073875;28;96667;-66
2021/07/15 05:55:01;;;;;;;;;10.00;9.00;;;;;26.35;59.36;98423.47;6082141;28;97574;-66
2021/07/15 05:58:05;;;;;;;;;10.40;9.40;;;;;26.42;58.44;98405.22;6084617;28;96846;-66
2021/07/15 06:01:10;;;;;;;;;9.20;9.00;;;;;26.47;58.37;98410.56;6081164;28;97545;-65
2021/07/15 06:04:13;;;;;;;;;13.00;11.00;;;;;26.56;59.36;98418.78;6056442;28;96708;-66
2021/07/15 06:07:17;;;;;;;;;10.40;9.40;;;;;26.55;58.45;98431.78;6062065;28;97387;-66
2021/07/15 06:10:22;;;;;;;;;8.60;8.00;;;;;26.64;58.66;98445.53;6055826;28;97495;-66
2021/07/15 06:13:25;;;;;;;;;9.50;9.50;;;;;26.64;58.48;98440.00;6081326;28;96672;-66
2021/07/15 06:16:28;;;;;;;;;11.00;9.60;;;;;26.78;58.68;98439.75;6058426;28;98098;-66
2021/07/15 06:19:31;;;;;;;;;10.00;9.00;;;;;26.91;58.90;98447.78;6050081;28;97703;-66
2021/07/15 06:22:35;;;;;;;;;13.00;11.00;;;;;26.97;57.88;98440.91;6075113;28;96474;-66
2021/07/15 06:25:40;;;;;;;;;10.00;9.60;;;;;26.97;58.16;98432.59;6076419;28;97376;-66
2021/07/15 06:28:43;;;;;;;;;12.00;11.00;;;;;27.14;58.48;98431.59;6064747;28;97616;-65
2021/07/15 06:31:46;;;;;;;;;12.60;11.60;;;;;27.30;57.32;98427.03;6078307;28;96929;-66
2021/07/15 06:34:50;;;;;;;;;12.00;10.25;;;;;27.52;57.48;98410.03;6064466;28;97157;-66
2021/07/15 06:37:55;;;;;;;;;10.80;9.80;;;;;27.79;57.91;98413.28;6076320;28;97907;-66
2021/07/15 06:41:03;;;;;;;;;10.00;9.00;;;;;27.94;57.15;98416.19;6040554;28;98085;-65
2021/07/15 06:44:07;;;;;;;;;9.80;9.00;;;;;28.07;56.51;98439.13;6081479;28;97527;-65
2021/07/15 06:47:11;;;;;;;;;12.00;11.00;;;;;28.03;54.92;98471.47;6060166;28;96755;-66
2021/07/15 06:50:15;;;;;;;;;13.00;11.75;;;;;27.93;55.20;98508.75;6071461;28;97897;-65
2021/07/15 06:53:19;;;;;;;;;13.00;11.00;;;;;27.57;55.82;98539.97;6081947;28;98101;-65
2021/07/15 06:56:24;;;;;;;;;10.00;10.00;;;;;27.51;56.99;98568.22;6056669;28;97021;-65
2021/07/15 06:59:27;;;;;;;;;10.40;9.80;;;;;27.37;56.64;98573.19;6052714;28;96550;-65
2021/07/15 07:02:30;;;;;;;;;11.00;10.00;;;;;27.31;56.53;98591.97;6081478;28;96667;-66
2021/07/15 07:05:34;;;;;;;;;11.40;11.00;;;;;27.25;56.12;98595.28;6083086;28;97524;-66
2021/07/15 07:08:37;;;;;;;;;9.00;9.00;;;;;27.16;55.85;98576.00;6075016;28;96696;-66
2021/07/15 07:11:42;;;;;;;;;9.20;8.00;;;;;26.98;55.07;98574.47;6035577;28;99201;-65
2021/07/15 07:14:45;;;;;;;;;9.60;8.60;;;;;26.98;55.49;98542.09;6073005;28;97564;-66
2021/07/15 07:17:49;;;;;;;;;7.20;7.00;;;;;26.88;54.92;98575.69;6083355;28;96580;-65
2021/07/15 07:20:53;;;;;;;;;6.60;6.20;;;;;26.64;53.58;98570.78;6069604;28;96596;-67
2021/07/15 07:23:57;;;;;;;;;6.00;5.00;;;;;26.32;53.76;98625.91;6068102;28;97494;-66
2021/07/15 07:27:02;;;;;;;;;5.60;5.00;;;;;25.71;54.13;98631.56;6081974;28;96722;-66
2021/07/15 07:30:06;;;;;;;;;5.20;4.00;;;;;25.05;56.70;98676.16;6050065;28;97345;-65
2021/07/15 07:33:10;;;;;;;;;5.20;5.00;;;;;24.23;59.69;98596.91;6082040;28;96634;-65
2021/07/15 07:36:14;;;;;;;;;4.40;4.40;;;;;23.95;59.97;98568.72;6071589;28;97201;-66
2021/07/15 07:39:17;;;;;;;;;4.00;4.00;;;;;23.98;60.34;98557.91;6075397;28;96805;-66
2021/07/15 07:42:22;;;;;;;;;4.80;4.80;;;;;23.87;61.18;98573.06;6080253;28;96723;-65
2021/07/15 07:45:25;;;;;;;;;4.50;4.00;;;;;23.88;61.34;98604.16;6084832;28;97867;-66
2021/07/15 07:48:29;;;;;;;;;4.00;4.00;;;;;23.96;61.31;98604.19;6083449;28;96721;-66
2021/07/15 07:51:32;;;;;;;;;4.00;4.00;;;;;24.02;60.78;98610.38;6070091;28;97633;-65
2021/07/15 07:54:36;;;;;;;;;4.50;4.50;;;;;24.11;61.49;98628.59;6074984;28;96497;-65
2021/07/15 07:57:41;;;;;;;;;4.00;4.00;;;;;24.17;60.67;98635.63;6069682;28;96701;-65
2021/07/15 08:00:44;;;;;;;;;5.75;5.00;;;;;24.29;61.19;98612.19;6064141;28;96724;-65
2021/07/15 08:03:48;;;;;;;;;6.25;6.00;;;;;24.36;60.98;98595.97;6066037;28;97360;-66
2021/07/15 08:06:51;;;;;;;;;4.40;4.40;;;;;24.35;60.54;98616.41;6041494;28;96762;-66
2021/07/15 08:09:55;;;;;;;;;5.00;4.00;;;;;24.41;61.15;98582.88;6066961;28;97025;-65
2021/07/15 08:13:01;;;;;;;;;5.00;4.00;;;;;24.31;60.88;98561.13;6067004;28;97292;-66
2021/07/15 08:16:05;;;;;;;;;6.00;5.00;;;;;24.36;61.01;98524.34;6046901;28;97569;-65
2021/07/15 08:19:09;;;;;;;;;5.00;3.60;;;;;24.24;60.35;98488.34;6067350;28;97226;-65
2021/07/15 08:22:12;;;;;;;;;4.40;4.40;;;;;24.57;59.26;98484.03;6042809;28;97511;-65
2021/07/15 08:25:19;;;;;;;;;5.20;5.00;;;;;24.71;59.83;98472.84;6055346;28;97795;-65
2021/07/15 08:28:24;;;;;;;;;6.00;5.25;;;;;24.80;60.08;98484.69;6069100;28;97468;-66
2021/07/15 08:31:27;;;;;;;;;3.00;3.00;;;;;24.65;59.32;98455.66;6065687;28;96533;-65
2021/07/15 08:34:30;;;;;;;;;7.00;5.00;;;;;24.91;59.49;98488.78;6044573;28;97090;-66
2021/07/15 08:37:34;;;;;;;;;4.00;4.00;;;;;25.09;59.23;98500.59;6066421;28;97668;-64
2021/07/15 08:40:38;;;;;;;;;4.00;4.00;;;;;25.19;59.21;98501.06;6069019;28;97555;-64
2021/07/15 08:43:44;;;;;;;;;6.00;5.40;;;;;25.28;59.95;98507.38;6066663;28;97111;-65
2021/07/15 08:46:49;;;;;;;;;6.00;5.00;;;;;25.44;59.97;98516.78;6081270;28;97463;-65
2021/07/15 08:49:54;;;;;;;;;6.00;5.60;;;;;25.52;59.20;98525.34;6050362;28;99570;-65
2021/07/15 08:52:58;;;;;;;;;6.00;6.00;;;;;25.65;58.66;98532.69;6062050;28;96843;-66
2021/07/15 08:59:25;;;;;;;;;7.00;5.60;;;;;25.89;58.42;98532.94;6064783;28;96514;-65
2021/07/15 09:02:29;;;;;;;;;6.20;6.00;;;;;25.94;58.45;98527.22;6083288;28;96666;-65
2021/07/15 09:05:32;;;;;;;;;6.00;5.00;;;;;26.06;58.64;98516.28;6041509;28;99672;-65
2021/07/15 09:08:36;;;;;;;;;6.00;5.50;;;;;26.05;57.73;98508.31;6082444;28;97622;-65
2021/07/15 09:11:40;;;;;;;;;6.80;6.00;;;;;25.98;57.53;98513.56;6039001;28;98570;-65
2021/07/15 09:14:47;;;;;;;;;6.00;6.00;;;;;25.69;57.73;98509.59;6090406;28;97516;-64
2021/07/15 09:17:50;;;;;;;;;6.00;5.00;;;;;25.72;58.53;98532.97;6055800;28;98607;-65
2021/07/15 09:20:54;;;;;;;;;5.00;5.00;;;;;25.68;59.06;98524.53;6062809;28;99546;-66
2021/07/15 09:23:57;;;;;;;;;6.00;5.75;;;;;25.67;58.76;98535.91;6073556;28;97068;-65
2021/07/15 09:27:11;;;;;;;;;6.20;5.20;;;;;25.54;59.17;98534.13;6092034;28;96593;-65
2021/07/15 09:30:17;;;;;;;;;6.00;5.00;;;;;25.51;59.42;98538.34;6057477;28;96565;-65
2021/07/15 09:33:25;;;;;;;;;7.00;6.00;;;;;25.53;59.35;98557.34;6061119;28;96650;-65
2021/07/15 09:36:28;;;;;;;;;4.60;4.60;;;;;25.46;59.66;98563.38;6045050;28;99668;-65
2021/07/15 09:39:43;;;;;;;;;6.20;5.20;;;;;25.39;60.01;98568.56;6079015;28;97487;-64
2021/07/15 09:42:48;;;;;;;;;7.40;7.00;;;;;25.41;60.19;98555.28;6080181;28;97420;-64
2021/07/15 09:45:59;;;;;;;;;6.00;5.80;;;;;25.52;60.00;98534.44;6053004;28;97619;-65
2021/07/15 09:49:06;;;;;;;;;8.80;7.00;;;;;25.54;59.44;98510.09;6083473;28;97378;-65
2021/07/15 09:52:22;;;;;;;;;7.00;7.00;;;;;25.66;59.72;98514.94;6073054;28;97019;-65
2021/07/15 09:55:27;;;;;;;;;9.20;8.20;;;;;25.74;59.27;98512.19;6093811;28;96427;-64
2021/07/15 09:58:35;;;;;;;;;9.00;8.00;;;;;25.86;59.15;98511.47;6076698;28;96794;-65
2021/07/15 10:01:46;;;;;;;;;7.20;7.00;;;;;25.91;58.91;98510.47;6059570;28;99561;-65
2021/07/15 10:04:53;;;;;;;;;5.40;4.40;;;;;25.78;58.44;98509.56;6043469;28;96735;-64
2021/07/15 10:08:04;;;;;;;;;7.00;7.00;;;;;25.88;58.72;98511.97;6068541;28;96695;-65
2021/07/15 10:11:16;;;;;;;;;10.00;8.25;;;;;26.11;58.75;98501.47;6066196;28;97557;-64
2021/07/15 10:14:21;;;;;;;;;6.80;6.80;;;;;26.37;58.96;98487.53;6074154;28;96559;-65
2021/07/15 10:17:40;;;;;;;;;6.80;6.80;;;;;26.51;58.44;98493.63;6065548;28;96740;-66
2021/07/15 10:20:54;;;;;;;;;7.00;7.00;;;;;26.34;58.15;98455.84;6067608;28;97517;-65
2021/07/15 10:23:59;;;;;;;;;7.20;6.80;;;;;26.63;57.72;98477.91;6059546;28;97132;-64
2021/07/15 10:27:05;;;;;;;;;8.00;7.00;;;;;26.84;57.63;98475.13;6051994;28;97067;-65
2021/07/15 10:30:10;;;;;;;;;8.00;7.75;;;;;27.10;57.80;98467.47;6068957;28;97514;-65
2021/07/15 10:33:16;;;;;;;;;8.00;7.80;;;;;27.21;55.58;98464.28;6050158;28;97174;-64
2021/07/15 10:36:21;;;;;;;;;8.00;7.00;;;;;27.25;55.17;98466.00;6066421;28;97620;-65
2021/07/15 10:39:27;;;;;;;;;7.00;7.00;;;;;27.37;54.84;98466.03;6067624;28;96469;-65
2021/07/15 10:42:34;;;;;;;;;8.00;7.00;;;;;27.42;54.85;98465.00;6067669;28;96596;-65
2021/07/15 10:45:37;;;;;;;;;7.40;6.40;;;;;27.68;55.09;98478.59;6067988;28;96642;-65
2021/07/15 10:48:43;;;;;;;;;8.00;7.00;;;;;27.90;53.85;98484.53;6052206;28;96675;-64
2021/07/15 10:51:49;;;;;;;;;8.60;8.60;;;;;28.26;54.43;98485.69;6083085;28;97537;-65
2021/07/15 10:54:54;;;;;;;;;7.80;7.80;;;;;28.57;53.20;98488.66;6092725;28;97508;-63
2021/07/15 10:58:00;;;;;;;;;8.50;7.75;;;;;29.00;53.88;98503.84;6076739;28;97652;-63
2021/07/15 11:01:03;;;;;;;;;8.20;8.20;;;;;29.43;52.30;98498.34;6065660;28;96752;-63
2021/07/15 11:04:10;;;;;;;;;11.00;10.50;;;;;29.76;49.36;98491.69;6071383;28;98038;-64
2021/07/15 11:07:19;;;;;;;;;9.00;9.00;;;;;29.86;49.40;98482.84;6061307;28;97746;-63
2021/07/15 11:10:24;;;;;;;;;11.00;10.00;;;;;30.09;50.73;98483.84;6056308;28;97531;-63
2021/07/15 11:13:29;;;;;;;;;10.00;10.00;;;;;30.17;49.77;98484.81;6076968;28;97498;-64
2021/07/15 11:16:52;;;;;;;;;11.00;10.00;;;;;30.25;48.40;98495.72;6074885;28;96663;-64
2021/07/15 11:20:00;;;;;;;;;11.67;10.67;;;;;30.30;48.91;98501.00;6074570;28;97022;-63
2021/07/15 11:23:20;;;;;;;;;12.40;11.00;;;;;30.32;48.71;98487.56;6066152;28;96759;-64
2021/07/15 11:26:27;;;;;;;;;13.40;13.00;;;;;30.25;47.95;98498.50;6052195;28;97347;-63
2021/07/15 11:29:48;;;;;;;;;13.00;11.00;;;;;30.11;48.25;98495.38;6050322;28;96787;-64
2021/07/15 11:32:51;;;;;;;;;15.00;13.00;;;;;29.98;48.74;98488.31;6066689;28;97231;-65
2021/07/15 11:36:00;;;;;;;;;13.00;12.60;;;;;29.81;49.74;98488.66;6068716;28;97593;-64
2021/07/15 11:39:05;;;;;;;;;12.00;11.00;;;;;29.78;50.20;98479.06;6055976;28;96572;-64
2021/07/15 11:42:18;;;;;;;;;13.75;13.00;;;;;29.77;49.32;98468.28;6066771;28;98431;-65
2021/07/15 11:45:22;;;;;;;;;15.50;14.50;;;;;29.74;49.84;98464.25;6083761;28;97761;-64
2021/07/15 11:48:54;;;;;;;;;12.60;12.00;;;;;29.99;50.80;98468.50;6067159;28;96962;-64
2021/07/15 11:52:02;;;;;;;;;17.00;15.00;;;;;30.31;49.62;98462.88;6082766;28;97038;-64
2021/07/15 11:55:13;;;;;;;;;14.00;13.00;;;;;30.57;49.13;98451.19;6062610;28;97058;-64
2021/07/15 11:58:45;;;;;;;;;16.00;14.00;;;;;30.77;49.13;98462.00;6069501;28;97278;-64
2021/07/15 12:02:04;;;;;;;;;13.60;11.60;;;;;31.01;49.06;98449.75;6066746;28;97477;-64
2021/07/15 12:05:17;;;;;;;;;15.00;13.75;;;;;31.26;48.20;98436.34;6064036;28;97454;-64
2021/07/15 12:08:22;;;;;;;;;16.40;15.80;;;;;31.32;47.20;98441.25;6071958;28;97524;-64
2021/07/15 12:11:26;;;;;;;;;14.40;14.00;;;;;31.65;47.33;98437.91;6050441;28;98611;-64
2021/07/15 12:14:31;;;;;;;;;15.80;14.80;;;;;31.83;46.30;98438.19;6080054;28;97256;-65
2021/07/15 12:17:35;;;;;;;;;15.60;14.40;;;;;32.04;45.83;98430.19;6049008;28;98439;-64
2021/07/15 12:20:41;;;;;;;;;15.00;14.60;;;;;32.35;46.14;98425.50;6081806;28;96962;-65
2021/07/15 12:23:49;;;;;;;;;14.20;13.00;;;;;32.85;46.04;98410.22;6062402;28;96863;-64
2021/07/15 12:26:55;;;;;;;;;17.40;14.40;;;;;33.09;44.05;98402.13;6065147;28;96813;-64
2021/07/15 12:29:59;;;;;;;;;16.40;16.00;;;;;33.34;43.73;98410.00;6077044;28;97153;-64
2021/07/15 12:33:03;;;;;;;;;15.20;15.00;;;;;33.37;43.42;98415.66;6064562;28;98032;-64
2021/07/15 12:36:11;;;;;;;;;17.00;16.00;;;;;33.40;43.50;98423.25;6048751;28;97552;-65
2021/07/15 12:39:15;;;;;;;;;15.00;14.00;;;;;33.22;42.94;98422.28;6057178;28;96727;-64
2021/07/15 12:42:23;;;;;;;;;17.25;16.25;;;;;33.39;43.26;98423.63;6080273;28;97287;-64
2021/07/15 12:45:28;;;;;;;;;15.75;14.75;;;;;33.47;42.52;98414.13;6071702;28;98067;-65
2021/07/15 12:48:40;;;;;;;;;17.00;15.00;;;;;33.65;43.81;98409.50;6072834;28;96800;-63
2021/07/15 12:51:48;;;;;;;;;18.00;16.00;;;;;33.81;42.95;98410.09;6056973;28;96726;-65
2021/07/15 12:54:55;;;;;;;;;21.00;18.40;;;;;33.87;42.14;98411.31;6080616;28;96720;-65
2021/07/15 12:57:58;;;;;;;;;20.00;19.00;;;;;33.82;42.34;98408.06;6064946;28;97466;-64
2021/07/15 13:01:05;;;;;;;;;20.60;18.00;;;;;33.70;43.07;98411.19;6060668;28;97456;-64
2021/07/15 13:04:11;;;;;;;;;19.00;19.00;;;;;33.86;43.20;98417.31;6035885;28;97084;-63
2021/07/15 13:07:21;;;;;;;;;20.80;19.00;;;;;34.10;43.38;98425.09;6065963;28;97482;-65
2021/07/15 13:14:17;;;;;;;;;21.00;20.00;;;;;34.05;42.18;98431.03;6069646;28;97478;-64
2021/07/15 13:17:36;;;;;;;;;19.50;18.00;;;;;33.83;42.42;98424.47;6069909;28;97371;-63
2021/07/15 13:20:44;;;;;;;;;21.00;19.00;;;;;33.65;42.69;98408.69;6067957;28;97100;-64
2021/07/15 13:24:00;;;;;;;;;20.00;19.25;;;;;33.76;43.55;98396.47;6068901;28;97653;-65
2021/07/15 13:27:14;;;;;;;;;17.80;17.00;;;;;34.11;43.44;98397.91;6049511;28;97523;-65
2021/07/15 13:30:22;;;;;;;;;18.80;18.20;;;;;34.37;41.59;98400.50;6066763;28;98200;-64
2021/07/15 13:33:26;;;;;;;;;19.80;19.00;;;;;34.22;41.08;98399.59;6070109;28;97479;-64
2021/07/15 13:36:29;;;;;;;;;19.00;17.00;;;;;34.13;41.31;98392.72;6068817;28;96780;-65
2021/07/15 13:39:39;;;;;;;;;19.00;17.80;;;;;34.08;42.55;98385.50;6068208;28;96764;-63
2021/07/15 13:42:44;;;;;;;;;19.00;17.40;;;;;34.27;42.30;98390.03;6068549;28;97513;-65
2021/07/15 13:45:47;;;;;;;;;19.00;18.40;;;;;34.36;42.38;98399.69;6076072;28;98921;-65
2021/07/15 13:48:50;;;;;;;;;21.00;18.00;;;;;34.34;41.48;98407.69;6085003;28;97448;-65
2021/07/15 13:52:03;;;;;;;;;18.00;17.00;;;;;34.48;42.29;98406.16;6080097;28;96810;-63
2021/07/15 13:55:09;;;;;;;;;19.40;18.00;;;;;34.51;42.01;98408.97;6050479;28;96800;-64
2021/07/15 13:58:16;;;;;;;;;19.00;17.00;;;;;34.59;41.92;98405.03;6054728;28;97327;-64
2021/07/15 14:01:27;;;;;;;;;20.50;18.50;;;;;34.47;41.67;98422.16;6069510;28;96945;-63
2021/07/15 14:04:31;;;;;;;;;18.40;17.00;;;;;34.10;42.08;98424.28;6082164;28;96611;-65
2021/07/15 14:07:35;;;;;;;;;21.60;18.60;;;;;33.92;42.83;98430.53;6054334;28;99155;-64
2021/07/15 14:10:41;;;;;;;;;21.60;18.80;;;;;33.75;43.25;98419.22;6035025;28;98025;-63
2021/07/15 14:13:46;;;;;;;;;19.00;19.00;;;;;33.70;42.83;98417.56;6076205;28;96683;-65
2021/07/15 14:16:55;;;;;;;;;20.00;17.20;;;;;33.83;43.89;98409.69;6075695;28;97498;-64
2021/07/15 14:20:02;;;;;;;;;22.80;20.20;;;;;33.78;43.49;98407.25;6054877;28;97381;-63
2021/07/15 14:23:07;;;;;;;;;21.00;19.60;;;;;33.61;43.79;98410.66;6080096;28;96600;-65
2021/07/15 14:26:11;;;;;;;;;21.00;19.60;;;;;33.57;44.26;98398.66;6037582;28;97800;-64
2021/07/15 14:29:15;;;;;;;;;23.00;22.00;;;;;33.43;44.11;98397.31;6079611;28;97380;-63
2021/07/15 14:32:19;;;;;;;;;19.50;19.50;;;;;33.43;44.64;98394.53;6083182;28;96510;-63
2021/07/15 14:35:24;;;;;;;;;22.25;20.00;;;;;33.44;44.79;98389.75;6037289;28;97366;-64